Time;durP1;ratioP1;P1;durP2;ratioP2;P2;SDS_P1;SDS_P2;PMS_P1;PMS_P2;Temp;Humidity;BMP_temperature;BMP_pressure;BME280_temperature;BME280_humidity;BME280_pressure;Samples;Min_cycle;Max_cycle;Signal;HPM_P1;HPM_P2
2023/03/05 00:00:11;;;;;;;208.13;136.93;;;;;;;;;;5036297;28;20148;-74
2023/03/05 00:02:36;;;;;;;200.40;129.77;;;;;;;;;;5030338;28;20099;-73
2023/03/05 00:05:04;;;;;;;141.85;94.57;;;;;;;;;;5038257;28;20136;-75
2023/03/05 00:07:30;;;;;;;145.98;96.65;;;;;;;;;;5029199;28;20043;-74
2023/03/05 00:09:57;;;;;;;126.47;84.50;;;;;;;;;;5040536;28;20021;-74
2023/03/05 00:12:22;;;;;;;131.70;87.68;;;;;;;;;;5032550;28;20135;-76
2023/03/05 00:14:48;;;;;;;114.20;76.35;;;;;;;;;;5028920;28;20434;-75
2023/03/05 00:17:13;;;;;;;100.28;68.95;;;;;;;;;;5032244;28;20033;-74
2023/03/05 00:19:38;;;;;;;105.00;75.25;;;;;;;;;;5039581;28;20025;-74
2023/03/05 00:22:04;;;;;;;144.55;105.03;;;;;;;;;;5038830;28;20029;-75
2023/03/05 00:24:29;;;;;;;125.90;91.97;;;;;;;;;;5039496;28;20025;-74
2023/03/05 00:26:55;;;;;;;131.32;96.10;;;;;;;;;;5038449;28;20047;-75
2023/03/05 00:29:23;;;;;;;145.88;103.45;;;;;;;;;;5037757;28;20502;-76
2023/03/05 00:31:48;;;;;;;163.93;118.47;;;;;;;;;;5036726;28;20440;-74
2023/03/05 00:34:15;;;;;;;148.60;111.80;;;;;;;;;;5038270;28;20025;-74
2023/03/05 00:36:42;;;;;;;143.70;104.90;;;;;;;;;;5028905;28;20477;-74
2023/03/05 00:39:07;;;;;;;133.05;95.03;;;;;;;;;;5035962;28;20332;-74
2023/03/05 00:41:32;;;;;;;139.43;100.40;;;;;;;;;;5037651;28;20021;-75
2023/03/05 00:43:57;;;;;;;171.20;115.43;;;;;;;;;;5037852;28;20037;-75
2023/03/05 00:46:23;;;;;;;189.68;119.68;;;;;;;;;;5023610;28;20064;-76
2023/03/05 00:48:48;;;;;;;148.80;95.18;;;;;;;;;;5033913;28;20033;-75
2023/03/05 00:51:13;;;;;;;221.25;141.10;;;;;;;;;;5039045;28;20120;-75
2023/03/05 00:53:39;;;;;;;214.60;139.30;;;;;;;;;;5038288;28;20029;-75
2023/03/05 00:56:05;;;;;;;165.10;114.95;;;;;;;;;;5028408;28;20052;-75
2023/03/05 00:58:30;;;;;;;211.23;135.07;;;;;;;;;;5038493;28;20036;-74
2023/03/05 01:00:59;;;;;;;202.05;133.38;;;;;;;;;;5036451;28;20035;-76
2023/03/05 01:03:24;;;;;;;291.73;170.70;;;;;;;;;;5038359;28;20095;-76
2023/03/05 01:05:50;;;;;;;214.85;143.85;;;;;;;;;;5035731;28;20452;-74
2023/03/05 01:08:15;;;;;;;181.82;124.45;;;;;;;;;;5039106;28;20438;-74
2023/03/05 01:10:41;;;;;;;237.80;148.02;;;;;;;;;;5037851;28;20025;-76
2023/03/05 01:13:06;;;;;;;214.75;141.23;;;;;;;;;;5036423;28;20029;-74
2023/03/05 01:15:31;;;;;;;171.73;115.20;;;;;;;;;;5027998;28;20517;-76
2023/03/05 01:17:57;;;;;;;172.30;115.10;;;;;;;;;;5034438;28;20087;-76
2023/03/05 01:20:22;;;;;;;184.70;125.63;;;;;;;;;;5038049;28;20095;-74
2023/03/05 01:22:47;;;;;;;238.30;150.30;;;;;;;;;;5038206;28;20448;-75
2023/03/05 01:25:13;;;;;;;261.05;160.85;;;;;;;;;;5038686;28;20472;-76
2023/03/05 01:27:38;;;;;;;243.02;156.18;;;;;;;;;;5037832;28;20112;-75
2023/03/05 01:30:04;;;;;;;206.55;138.73;;;;;;;;;;5036085;28;20073;-74
2023/03/05 01:32:29;;;;;;;188.20;129.32;;;;;;;;;;5038376;28;20074;-74
2023/03/05 01:34:55;;;;;;;132.02;91.82;;;;;;;;;;5040219;28;20076;-78
2023/03/05 01:37:20;;;;;;;141.55;95.57;;;;;;;;;;5037659;28;20099;-75
2023/03/05 01:39:45;;;;;;;126.47;89.55;;;;;;;;;;5037371;28;20448;-77
2023/03/05 01:42:11;;;;;;;124.63;87.95;;;;;;;;;;5069517;28;20033;-77
2023/03/05 01:44:36;;;;;;;133.98;87.60;;;;;;;;;;5031475;28;20432;-74
2023/03/05 01:47:01;;;;;;;116.35;79.75;;;;;;;;;;5029849;28;20058;-74
2023/03/05 01:49:29;;;;;;;118.65;82.05;;;;;;;;;;5038680;28;20021;-74
2023/03/05 01:52:01;;;;;;;140.07;94.35;;;;;;;;;;5033443;28;20440;-76
2023/03/05 01:54:30;;;;;;;110.45;76.07;;;;;;;;;;5025498;28;20030;-74
2023/03/05 01:56:58;;;;;;;122.32;90.70;;;;;;;;;;5037513;28;20094;-74
2023/03/05 01:59:24;;;;;;;116.57;84.63;;;;;;;;;;5033887;28;20082;-74
2023/03/05 02:01:50;;;;;;;106.43;78.75;;;;;;;;;;5028266;28;20110;-76
2023/03/05 02:04:17;;;;;;;136.32;90.38;;;;;;;;;;5039115;28;20020;-76
2023/03/05 02:06:43;;;;;;;153.07;104.90;;;;;;;;;;5034912;28;20051;-77
2023/03/05 02:09:09;;;;;;;148.27;101.00;;;;;;;;;;5037704;28;20029;-76
2023/03/05 02:11:34;;;;;;;148.85;98.78;;;;;;;;;;5026064;28;20025;-75
2023/03/05 02:14:00;;;;;;;162.82;108.35;;;;;;;;;;5037181;28;20423;-76
2023/03/05 02:16:34;;;;;;;202.52;141.52;;;;;;;;;;5025824;28;20023;-74
2023/03/05 02:18:59;;;;;;;152.27;99.63;;;;;;;;;;5038631;28;20498;-75
2023/03/05 02:21:34;;;;;;;160.80;109.32;;;;;;;;;;5035860;28;20037;-74
2023/03/05 02:24:00;;;;;;;144.77;101.28;;;;;;;;;;5026072;28;20448;-74
2023/03/05 02:26:25;;;;;;;159.13;105.45;;;;;;;;;;5036104;28;20036;-75
2023/03/05 02:28:53;;;;;;;147.40;101.20;;;;;;;;;;5035096;28;20040;-76
2023/03/05 02:31:20;;;;;;;158.82;114.38;;;;;;;;;;5025083;28;20022;-74
2023/03/05 02:33:45;;;;;;;161.38;112.25;;;;;;;;;;5037470;28;20032;-74
2023/03/05 02:36:11;;;;;;;126.00;93.57;;;;;;;;;;5037229;28;20036;-74
2023/03/05 02:38:37;;;;;;;150.85;106.75;;;;;;;;;;5036284;28;20068;-77
2023/03/05 02:41:02;;;;;;;166.73;120.25;;;;;;;;;;5033887;28;20516;-76
2023/03/05 02:43:28;;;;;;;160.95;116.30;;;;;;;;;;5036048;28;20033;-75
2023/03/05 02:45:53;;;;;;;163.15;116.50;;;;;;;;;;5024748;28;20375;-74
2023/03/05 02:48:18;;;;;;;143.75;100.43;;;;;;;;;;5037168;28;20025;-79
2023/03/05 02:50:44;;;;;;;212.13;159.00;;;;;;;;;;5036279;28;20481;-74
2023/03/05 02:53:09;;;;;;;193.38;147.30;;;;;;;;;;5035412;28;20083;-75
2023/03/05 02:55:34;;;;;;;152.23;105.68;;;;;;;;;;5035716;28;20020;-76
2023/03/05 02:58:00;;;;;;;140.68;96.00;;;;;;;;;;5037730;28;20036;-75
2023/03/05 03:00:25;;;;;;;117.53;86.07;;;;;;;;;;5034567;28;20060;-74
2023/03/05 03:02:50;;;;;;;142.85;100.03;;;;;;;;;;5034982;28;20656;-76
2023/03/05 03:05:16;;;;;;;156.60;107.72;;;;;;;;;;5028790;28;20473;-75
2023/03/05 03:07:41;;;;;;;219.00;133.63;;;;;;;;;;5031326;28;20035;-74
2023/03/05 03:10:07;;;;;;;190.18;126.05;;;;;;;;;;5036078;28;20321;-74
2023/03/05 03:12:36;;;;;;;140.65;92.90;;;;;;;;;;5035975;28;20499;-74
2023/03/05 03:15:01;;;;;;;114.80;76.00;;;;;;;;;;5030001;28;20594;-74
2023/03/05 03:17:26;;;;;;;109.65;72.90;;;;;;;;;;5028184;28;20709;-73
2023/03/05 03:19:52;;;;;;;116.20;80.43;;;;;;;;;;5036657;28;20029;-74
2023/03/05 03:22:17;;;;;;;118.43;82.85;;;;;;;;;;5037727;28;20055;-75
2023/03/05 03:24:42;;;;;;;91.80;59.58;;;;;;;;;;5034068;28;22799;-76
2023/03/05 03:27:08;;;;;;;98.28;65.00;;;;;;;;;;5021938;28;20028;-74
2023/03/05 03:29:33;;;;;;;100.57;70.50;;;;;;;;;;5033132;28;20017;-75
2023/03/05 03:31:58;;;;;;;108.25;73.00;;;;;;;;;;5018663;28;21273;-75
2023/03/05 03:34:24;;;;;;;120.53;79.32;;;;;;;;;;5030580;28;20087;-76
2023/03/05 03:36:51;;;;;;;108.38;71.68;;;;;;;;;;5035068;28;20332;-74
2023/03/05 03:39:17;;;;;;;105.22;65.90;;;;;;;;;;5034525;28;20109;-75
2023/03/05 03:41:47;;;;;;;99.70;68.82;;;;;;;;;;5034755;28;20096;-76
2023/03/05 03:44:12;;;;;;;90.60;66.15;;;;;;;;;;5036250;28;20369;-74
2023/03/05 03:46:38;;;;;;;91.50;64.82;;;;;;;;;;5056163;28;20479;-74
2023/03/05 03:49:04;;;;;;;85.97;53.83;;;;;;;;;;5023167;28;20017;-74
2023/03/05 03:51:29;;;;;;;83.18;53.03;;;;;;;;;;5022045;28;20048;-76
2023/03/05 03:53:55;;;;;;;88.03;56.97;;;;;;;;;;5023339;28;20026;-74
2023/03/05 03:56:20;;;;;;;77.68;54.00;;;;;;;;;;5027295;28;20099;-74
2023/03/05 03:58:48;;;;;;;85.97;57.72;;;;;;;;;;5035418;28;20032;-73
2023/03/05 04:01:13;;;;;;;88.68;62.28;;;;;;;;;;5036506;28;20024;-72
2023/03/05 04:03:38;;;;;;;89.82;58.67;;;;;;;;;;5036416;28;20387;-76
2023/03/05 04:06:04;;;;;;;107.72;69.88;;;;;;;;;;5033288;28;20464;-74
2023/03/05 04:08:29;;;;;;;102.13;66.93;;;;;;;;;;5023000;28;20079;-78
2023/03/05 04:10:54;;;;;;;111.80;74.32;;;;;;;;;;5032856;28;20547;-77
2023/03/05 04:13:20;;;;;;;143.50;92.25;;;;;;;;;;5033314;28;20029;-73
2023/03/05 04:15:45;;;;;;;147.52;94.20;;;;;;;;;;5033992;28;20464;-73
2023/03/05 04:18:10;;;;;;;161.73;103.05;;;;;;;;;;5026026;28;20032;-73
2023/03/05 04:20:36;;;;;;;156.30;108.85;;;;;;;;;;5035993;28;20021;-73
2023/03/05 04:23:01;;;;;;;140.98;94.70;;;;;;;;;;5034241;28;20080;-73
2023/03/05 04:25:26;;;;;;;140.77;95.60;;;;;;;;;;5035890;28;20444;-74
2023/03/05 04:27:52;;;;;;;168.35;111.40;;;;;;;;;;5035132;28;20360;-73
2023/03/05 04:30:17;;;;;;;137.40;94.72;;;;;;;;;;5037047;28;20025;-73
2023/03/05 04:32:42;;;;;;;108.40;75.10;;;;;;;;;;5036695;28;20074;-76
2023/03/05 04:35:08;;;;;;;85.32;59.58;;;;;;;;;;5035686;28;20449;-73
2023/03/05 04:37:33;;;;;;;85.03;58.15;;;;;;;;;;5032014;28;20425;-72
2023/03/05 04:39:58;;;;;;;99.90;71.10;;;;;;;;;;5023981;28;20048;-74
2023/03/05 04:42:24;;;;;;;159.63;104.88;;;;;;;;;;5038305;28;20029;-74
2023/03/05 04:44:49;;;;;;;164.88;111.18;;;;;;;;;;5037414;28;20029;-73
2023/03/05 04:47:15;;;;;;;154.10;105.80;;;;;;;;;;5036011;28;20065;-74
2023/03/05 04:49:40;;;;;;;135.85;93.82;;;;;;;;;;5039797;28;20038;-75
2023/03/05 04:52:05;;;;;;;108.75;75.03;;;;;;;;;;5039362;28;20017;-72
2023/03/05 04:54:31;;;;;;;101.45;68.85;;;;;;;;;;5036957;28;20085;-72
2023/03/05 04:56:56;;;;;;;98.40;68.65;;;;;;;;;;5037811;28;20091;-73
2023/03/05 04:59:21;;;;;;;87.78;62.63;;;;;;;;;;5037948;28;20598;-75
2023/03/05 05:01:47;;;;;;;73.47;49.88;;;;;;;;;;5030265;28;20091;-74
2023/03/05 05:04:12;;;;;;;94.47;62.63;;;;;;;;;;5036112;28;20017;-74
2023/03/05 05:06:37;;;;;;;92.75;62.72;;;;;;;;;;5037885;28;20509;-75
2023/03/05 05:09:03;;;;;;;91.15;58.60;;;;;;;;;;5039382;28;20044;-73
2023/03/05 05:11:28;;;;;;;100.90;65.03;;;;;;;;;;5037431;28;20040;-74
2023/03/05 05:13:53;;;;;;;84.30;55.72;;;;;;;;;;5039438;28;20144;-73
2023/03/05 05:16:19;;;;;;;69.47;48.15;;;;;;;;;;5036577;28;20033;-72
2023/03/05 05:18:44;;;;;;;60.85;44.78;;;;;;;;;;5036864;28;20052;-73
2023/03/05 05:21:10;;;;;;;66.15;44.92;;;;;;;;;;5034817;28;20104;-73
2023/03/05 05:23:36;;;;;;;66.70;48.10;;;;;;;;;;5038161;28;20555;-72
2023/03/05 05:26:02;;;;;;;70.43;50.40;;;;;;;;;;5037711;28;20091;-74
2023/03/05 05:28:27;;;;;;;72.00;52.13;;;;;;;;;;5039045;28;20028;-73
2023/03/05 05:30:53;;;;;;;76.35;54.08;;;;;;;;;;5036343;28;20103;-73
2023/03/05 05:33:19;;;;;;;77.90;54.45;;;;;;;;;;5038412;28;20459;-73
2023/03/05 05:35:44;;;;;;;83.10;57.20;;;;;;;;;;5037124;28;20025;-75
2023/03/05 05:38:10;;;;;;;81.00;52.67;;;;;;;;;;5037489;28;20448;-74
2023/03/05 05:40:35;;;;;;;80.72;57.75;;;;;;;;;;5034344;28;20026;-73
2023/03/05 05:43:00;;;;;;;64.45;48.88;;;;;;;;;;5034369;28;20025;-76
2023/03/05 05:45:25;;;;;;;70.85;51.95;;;;;;;;;;5037649;28;20085;-73
2023/03/05 05:47:51;;;;;;;68.82;45.88;;;;;;;;;;5036926;28;20032;-73
2023/03/05 05:50:18;;;;;;;113.22;83.10;;;;;;;;;;5027194;28;20028;-72
2023/03/05 05:52:43;;;;;;;81.97;60.28;;;;;;;;;;5024919;28;20095;-71
2023/03/05 05:55:08;;;;;;;82.28;59.25;;;;;;;;;;5021583;28;20483;-71
2023/03/05 05:57:34;;;;;;;71.95;53.05;;;;;;;;;;5026725;28;20009;-74
2023/03/05 05:59:59;;;;;;;66.60;53.13;;;;;;;;;;5024223;28;20360;-75
2023/03/05 06:02:26;;;;;;;72.00;54.25;;;;;;;;;;5033197;28;20060;-73
2023/03/05 06:04:51;;;;;;;80.05;62.08;;;;;;;;;;5036315;28;20090;-73
2023/03/05 06:07:17;;;;;;;126.65;92.65;;;;;;;;;;5037406;28;20037;-73
2023/03/05 06:09:42;;;;;;;96.10;72.60;;;;;;;;;;5029501;28;20017;-73
2023/03/05 06:12:07;;;;;;;77.25;59.95;;;;;;;;;;5027803;28;20092;-73
2023/03/05 06:14:33;;;;;;;121.22;92.82;;;;;;;;;;5026012;28;20025;-75
2023/03/05 06:16:58;;;;;;;136.65;101.82;;;;;;;;;;5034729;28;20383;-73
2023/03/05 06:19:23;;;;;;;125.75;93.97;;;;;;;;;;5036969;28;20039;-75
2023/03/05 06:21:48;;;;;;;99.57;75.53;;;;;;;;;;5035238;28;20037;-73
2023/03/05 06:24:14;;;;;;;106.25;78.97;;;;;;;;;;5032163;28;20026;-73
2023/03/05 06:26:39;;;;;;;106.13;82.05;;;;;;;;;;5023509;28;20028;-75
2023/03/05 06:29:04;;;;;;;123.03;94.22;;;;;;;;;;5024862;28;20660;-74
2023/03/05 06:31:30;;;;;;;139.85;101.32;;;;;;;;;;5028087;28;20082;-74
2023/03/05 06:33:57;;;;;;;106.07;84.65;;;;;;;;;;5035585;28;20411;-73
2023/03/05 06:36:23;;;;;;;152.50;117.53;;;;;;;;;;5038261;28;20029;-74
2023/03/05 06:38:49;;;;;;;287.17;208.75;;;;;;;;;;5036216;28;20113;-74
2023/03/05 06:41:15;;;;;;;106.78;76.75;;;;;;;;;;5036704;28;20029;-73
2023/03/05 06:43:42;;;;;;;71.20;51.58;;;;;;;;;;5035988;28;20060;-76
2023/03/05 06:46:09;;;;;;;71.07;53.22;;;;;;;;;;5033327;28;20479;-75
2023/03/05 06:48:35;;;;;;;84.75;57.22;;;;;;;;;;5037590;28;20361;-76
2023/03/05 06:51:00;;;;;;;72.30;53.75;;;;;;;;;;5031304;28;20024;-76
2023/03/05 06:53:26;;;;;;;88.88;64.60;;;;;;;;;;5026350;28;20021;-74
2023/03/05 06:55:52;;;;;;;79.05;59.15;;;;;;;;;;5033434;28;20037;-76
2023/03/05 06:58:17;;;;;;;103.07;82.47;;;;;;;;;;5035194;28;20440;-75
2023/03/05 07:00:43;;;;;;;92.88;71.95;;;;;;;;;;5023979;28;20108;-80
2023/03/05 07:03:08;;;;;;;83.65;64.47;;;;;;;;;;5035567;28;20039;-76
2023/03/05 07:05:37;;;;;;;92.47;65.60;;;;;;;;;;5034973;28;20745;-77
2023/03/05 07:08:03;;;;;;;85.22;61.47;;;;;;;;;;5035890;28;20106;-74
2023/03/05 07:10:28;;;;;;;94.72;61.35;;;;;;;;;;5023019;28;20449;-78
2023/03/05 07:12:53;;;;;;;70.45;53.60;;;;;;;;;;5022325;28;20740;-78
2023/03/05 07:15:19;;;;;;;69.55;52.90;;;;;;;;;;5023365;28;20553;-78
2023/03/05 07:17:44;;;;;;;68.95;48.70;;;;;;;;;;5024072;28;20024;-77
2023/03/05 07:20:09;;;;;;;75.18;52.67;;;;;;;;;;5022833;28;20029;-79
2023/03/05 07:22:36;;;;;;;74.28;55.55;;;;;;;;;;5032217;28;20086;-77
2023/03/05 07:25:01;;;;;;;69.65;47.63;;;;;;;;;;5036732;28;20040;-76
2023/03/05 07:27:26;;;;;;;55.67;41.67;;;;;;;;;;5035186;28;20020;-75
2023/03/05 07:29:51;;;;;;;64.50;49.13;;;;;;;;;;5036237;28;20419;-75
2023/03/05 07:32:17;;;;;;;58.78;44.22;;;;;;;;;;5031180;28;20025;-76
2023/03/05 07:34:42;;;;;;;54.40;42.08;;;;;;;;;;5030000;28;20035;-76
2023/03/05 07:37:07;;;;;;;50.15;37.53;;;;;;;;;;5031074;28;20383;-78
2023/03/05 07:39:33;;;;;;;59.10;45.13;;;;;;;;;;5030124;28;20429;-76
2023/03/05 07:41:58;;;;;;;70.20;58.75;;;;;;;;;;5035194;28;20021;-74
2023/03/05 07:44:23;;;;;;;67.80;54.00;;;;;;;;;;5024522;28;21177;-77
2023/03/05 07:46:48;;;;;;;58.53;48.88;;;;;;;;;;5035114;28;20052;-80
2023/03/05 07:49:14;;;;;;;56.05;41.72;;;;;;;;;;5036054;28;20448;-77
2023/03/05 07:51:40;;;;;;;55.17;43.03;;;;;;;;;;5033335;28;20037;-75
2023/03/05 07:54:06;;;;;;;47.90;37.08;;;;;;;;;;5021188;28;20344;-74
2023/03/05 07:56:34;;;;;;;50.83;32.47;;;;;;;;;;5021227;28;20032;-77
2023/03/05 07:59:00;;;;;;;60.80;41.78;;;;;;;;;;5022612;28;20030;-75
2023/03/05 08:01:26;;;;;;;43.38;33.58;;;;;;;;;;5023649;28;20021;-78
2023/03/05 08:03:51;;;;;;;169.48;95.47;;;;;;;;;;5023271;28;20506;-76
2023/03/05 08:06:16;;;;;;;66.97;49.03;;;;;;;;;;5023017;28;20047;-72
2023/03/05 08:08:42;;;;;;;41.00;32.35;;;;;;;;;;5021731;28;20040;-71
2023/03/05 08:11:08;;;;;;;38.72;30.35;;;;;;;;;;5023566;28;20032;-74
2023/03/05 08:13:34;;;;;;;40.40;30.08;;;;;;;;;;5017819;28;20087;-78
2023/03/05 08:16:03;;;;;;;39.45;29.63;;;;;;;;;;5022881;28;20036;-77
2023/03/05 08:18:28;;;;;;;44.00;32.78;;;;;;;;;;5027560;28;20059;-77
2023/03/05 08:20:54;;;;;;;43.08;31.00;;;;;;;;;;5028853;28;20428;-78
2023/03/05 08:23:19;;;;;;;62.75;43.17;;;;;;;;;;5026160;28;20068;-77
2023/03/05 08:25:44;;;;;;;51.75;36.28;;;;;;;;;;5024131;28;20076;-78
2023/03/05 08:28:10;;;;;;;47.67;33.92;;;;;;;;;;5028859;28;20910;-78
2023/03/05 08:30:35;;;;;;;43.15;33.05;;;;;;;;;;5038643;28;20436;-77
2023/03/05 08:33:00;;;;;;;45.25;34.60;;;;;;;;;;5040076;28;20036;-72
2023/03/05 08:35:26;;;;;;;46.90;36.42;;;;;;;;;;5030146;28;20041;-79
2023/03/05 08:37:51;;;;;;;43.10;33.33;;;;;;;;;;5030294;28;20044;-77
2023/03/05 08:40:16;;;;;;;43.40;33.33;;;;;;;;;;5038106;28;20029;-78
2023/03/05 08:42:42;;;;;;;43.72;32.85;;;;;;;;;;5036638;28;20028;-80
2023/03/05 08:45:08;;;;;;;43.55;30.92;;;;;;;;;;5030519;28;20032;-78
2023/03/05 08:47:33;;;;;;;36.75;28.98;;;;;;;;;;5036750;28;20033;-79
2023/03/05 08:49:58;;;;;;;41.47;32.47;;;;;;;;;;5035331;28;20092;-79
2023/03/05 08:52:26;;;;;;;51.65;36.60;;;;;;;;;;5024304;28;20035;-78
2023/03/05 08:54:51;;;;;;;46.45;34.20;;;;;;;;;;5033977;28;20053;-76
2023/03/05 08:57:16;;;;;;;46.65;34.92;;;;;;;;;;5026278;28;20056;-78
2023/03/05 08:59:41;;;;;;;46.00;36.67;;;;;;;;;;5027214;28;20094;-81
2023/03/05 09:02:09;;;;;;;38.15;28.20;;;;;;;;;;5041085;28;20025;-81
2023/03/05 09:04:36;;;;;;;47.55;35.13;;;;;;;;;;5036399;28;20029;-78
2023/03/05 09:07:01;;;;;;;50.45;37.15;;;;;;;;;;5030612;28;20052;-78
2023/03/05 09:09:28;;;;;;;44.80;35.33;;;;;;;;;;5024507;28;20025;-79
2023/03/05 09:11:54;;;;;;;43.97;35.53;;;;;;;;;;5024443;28;20033;-82
2023/03/05 09:14:19;;;;;;;53.97;41.65;;;;;;;;;;5029189;28;20029;-76
2023/03/05 09:16:45;;;;;;;51.80;36.22;;;;;;;;;;5025493;28;20064;-76
2023/03/05 09:19:11;;;;;;;40.00;29.67;;;;;;;;;;5025636;28;20444;-76
2023/03/05 09:21:37;;;;;;;50.80;39.25;;;;;;;;;;5026726;28;20040;-78
2023/03/05 09:24:03;;;;;;;38.05;31.20;;;;;;;;;;5024050;28;20448;-77
2023/03/05 09:26:28;;;;;;;37.17;30.05;;;;;;;;;;5024462;28;20086;-77
2023/03/05 09:28:53;;;;;;;39.85;31.42;;;;;;;;;;5024761;28;20116;-78
2023/03/05 09:31:19;;;;;;;41.67;31.98;;;;;;;;;;5026955;28;20028;-77
2023/03/05 09:33:46;;;;;;;41.40;31.65;;;;;;;;;;5024681;28;20036;-77
2023/03/05 09:36:22;;;;;;;36.35;27.98;;;;;;;;;;5024636;28;20032;-76
2023/03/05 09:38:47;;;;;;;31.17;25.75;;;;;;;;;;5021926;28;20059;-75
2023/03/05 09:41:16;;;;;;;34.50;27.23;;;;;;;;;;5024963;28;20052;-76
2023/03/05 09:44:00;;;;;;;31.92;24.85;;;;;;;;;;5021315;28;20034;-78
2023/03/05 09:46:25;;;;;;;30.35;23.38;;;;;;;;;;5018244;28;20053;-75
2023/03/05 09:48:52;;;;;;;28.88;23.70;;;;;;;;;;5017614;28;21425;-75
2023/03/05 09:51:21;;;;;;;29.92;24.83;;;;;;;;;;5019712;28;20025;-74
2023/03/05 09:53:50;;;;;;;27.50;22.58;;;;;;;;;;5021011;28;20036;-75
2023/03/05 09:56:19;;;;;;;27.02;22.48;;;;;;;;;;5023936;28;20032;-74
2023/03/05 09:58:48;;;;;;;28.67;22.65;;;;;;;;;;5022146;28;20150;-77
2023/03/05 10:01:18;;;;;;;28.98;23.75;;;;;;;;;;5019658;28;20048;-77
2023/03/05 10:03:49;;;;;;;33.53;23.73;;;;;;;;;;5032140;28;20040;-78
2023/03/05 10:06:22;;;;;;;34.75;24.80;;;;;;;;;;5026396;28;20060;-77
2023/03/05 10:08:52;;;;;;;27.08;20.70;;;;;;;;;;5037225;28;20033;-78
2023/03/05 10:11:36;;;;;;;32.13;25.52;;;;;;;;;;5028729;28;20036;-76
2023/03/05 10:14:01;;;;;;;26.65;21.77;;;;;;;;;;5030899;28;20437;-78
2023/03/05 10:16:33;;;;;;;25.73;20.88;;;;;;;;;;5037237;28;20112;-76
2023/03/05 10:19:07;;;;;;;32.08;26.40;;;;;;;;;;5035538;28;20033;-77
2023/03/05 10:21:45;;;;;;;28.80;22.30;;;;;;;;;;5035713;28;20679;-77
2023/03/05 10:24:31;;;;;;;24.63;19.70;;;;;;;;;;5038120;28;20696;-79
2023/03/05 10:27:00;;;;;;;26.60;21.55;;;;;;;;;;5029568;28;20056;-78
2023/03/05 10:29:38;;;;;;;26.70;20.93;;;;;;;;;;5031075;28;20025;-77
2023/03/05 10:32:08;;;;;;;25.90;20.02;;;;;;;;;;5034539;28;20341;-78
2023/03/05 10:34:47;;;;;;;27.65;22.20;;;;;;;;;;5036186;28;20033;-78
2023/03/05 10:37:35;;;;;;;26.20;22.50;;;;;;;;;;5033668;28;20084;-77
2023/03/05 10:40:01;;;;;;;21.10;17.98;;;;;;;;;;5038227;28;20226;-78
2023/03/05 10:42:35;;;;;;;26.65;20.02;;;;;;;;;;5036724;28;20033;-78
2023/03/05 10:45:08;;;;;;;22.63;18.00;;;;;;;;;;5021198;28;20026;-78
2023/03/05 10:47:43;;;;;;;27.80;23.75;;;;;;;;;;5019301;28;20045;-77
2023/03/05 10:50:19;;;;;;;29.15;24.50;;;;;;;;;;5022353;28;20036;-77
2023/03/05 10:52:47;;;;;;;19.92;17.13;;;;;;;;;;5026987;28;20555;-77
2023/03/05 10:55:14;;;;;;;28.35;23.00;;;;;;;;;;5031432;28;20458;-77
2023/03/05 10:57:39;;;;;;;19.73;14.82;;;;;;;;;;5036273;28;20028;-77
2023/03/05 11:00:05;;;;;;;30.23;23.88;;;;;;;;;;5038867;28;20033;-77
2023/03/05 11:02:30;;;;;;;32.33;22.42;;;;;;;;;;5035476;28;20025;-78
2023/03/05 11:04:56;;;;;;;22.50;18.77;;;;;;;;;;5030080;28;20440;-78
2023/03/05 11:07:21;;;;;;;29.45;21.67;;;;;;;;;;5033875;28;20049;-79
2023/03/05 11:09:58;;;;;;;24.00;20.27;;;;;;;;;;5035627;28;20051;-78
2023/03/05 11:12:25;;;;;;;28.92;23.17;;;;;;;;;;5024610;28;20440;-77
2023/03/05 11:15:02;;;;;;;27.88;21.65;;;;;;;;;;5034207;28;20032;-78
2023/03/05 11:17:33;;;;;;;25.27;20.02;;;;;;;;;;5031288;28;20072;-79
2023/03/05 11:20:18;;;;;;;27.92;22.08;;;;;;;;;;5034984;28;20448;-77
2023/03/05 11:23:00;;;;;;;31.67;25.77;;;;;;;;;;5034099;28;20356;-76
2023/03/05 11:25:25;;;;;;;26.55;22.35;;;;;;;;;;5034675;28;20062;-75
2023/03/05 11:27:54;;;;;;;36.13;28.63;;;;;;;;;;5027427;28;20115;-76
2023/03/05 11:30:23;;;;;;;26.70;20.55;;;;;;;;;;5030053;28;20029;-77
2023/03/05 11:32:48;;;;;;;26.40;22.65;;;;;;;;;;5018325;28;20036;-77
2023/03/05 11:35:34;;;;;;;25.00;20.98;;;;;;;;;;5021939;28;20033;-80
2023/03/05 11:38:00;;;;;;;20.15;16.85;;;;;;;;;;5025539;28;20056;-77
2023/03/05 11:40:26;;;;;;;22.50;19.17;;;;;;;;;;5035786;28;20032;-76
2023/03/05 11:42:55;;;;;;;28.00;22.83;;;;;;;;;;5026150;28;20021;-76
2023/03/05 11:45:22;;;;;;;21.17;17.73;;;;;;;;;;5030434;28;20053;-78
2023/03/05 11:47:49;;;;;;;22.98;20.23;;;;;;;;;;5030933;28;20029;-79
2023/03/05 11:50:23;;;;;;;26.92;21.65;;;;;;;;;;5026396;28;20024;-76
2023/03/05 11:52:50;;;;;;;27.02;21.88;;;;;;;;;;5027254;28;20412;-77
2023/03/05 11:55:18;;;;;;;24.80;20.83;;;;;;;;;;5027441;28;20449;-77
2023/03/05 11:57:59;;;;;;;24.35;21.33;;;;;;;;;;5026299;28;20025;-78
2023/03/05 12:00:27;;;;;;;23.58;19.90;;;;;;;;;;5025346;28;20028;-76
2023/03/05 12:02:54;;;;;;;38.15;30.02;;;;;;;;;;5026312;28;20032;-77
2023/03/05 12:05:20;;;;;;;28.17;24.50;;;;;;;;;;5023453;28;20033;-78
2023/03/05 12:07:47;;;;;;;22.90;19.45;;;;;;;;;;5023669;28;20037;-76
2023/03/05 12:10:14;;;;;;;32.78;26.20;;;;;;;;;;5031445;28;20091;-77
2023/03/05 12:12:59;;;;;;;24.75;19.40;;;;;;;;;;5037132;28;20106;-78
2023/03/05 12:15:37;;;;;;;20.30;16.90;;;;;;;;;;5027683;28;20041;-77
2023/03/05 12:18:08;;;;;;;19.73;16.83;;;;;;;;;;5033389;28;20040;-75
2023/03/05 12:20:36;;;;;;;24.60;19.23;;;;;;;;;;5033219;28;20036;-76
2023/03/05 12:23:02;;;;;;;21.13;16.83;;;;;;;;;;5031566;28;20997;-77
2023/03/05 12:25:27;;;;;;;22.85;17.92;;;;;;;;;;5034612;28;20088;-78
2023/03/05 12:27:52;;;;;;;23.48;18.92;;;;;;;;;;5037975;28;20036;-76
2023/03/05 12:30:44;;;;;;;19.80;15.98;;;;;;;;;;5032599;28;20028;-77
2023/03/05 12:33:28;;;;;;;30.38;21.73;;;;;;;;;;5027871;28;20129;-76
2023/03/05 12:36:13;;;;;;;24.52;18.92;;;;;;;;;;5025057;28;20025;-76
2023/03/05 12:38:39;;;;;;;33.55;24.70;;;;;;;;;;5024419;28;20021;-76
2023/03/05 12:41:22;;;;;;;36.72;25.42;;;;;;;;;;5027096;28;20021;-78
2023/03/05 12:44:08;;;;;;;32.08;22.60;;;;;;;;;;5026092;28;20450;-79
2023/03/05 12:46:34;;;;;;;25.42;19.70;;;;;;;;;;5024549;28;20061;-78
2023/03/05 12:49:21;;;;;;;28.92;20.30;;;;;;;;;;5022229;28;20155;-77
2023/03/05 12:51:48;;;;;;;23.00;19.55;;;;;;;;;;5027175;28;20029;-77
2023/03/05 12:54:26;;;;;;;28.00;21.48;;;;;;;;;;5025567;28;20033;-76
2023/03/05 12:56:53;;;;;;;32.50;24.20;;;;;;;;;;5024261;28;21206;-77
2023/03/05 12:59:20;;;;;;;35.03;27.13;;;;;;;;;;5031835;28;20029;-80
2023/03/05 13:01:49;;;;;;;23.25;20.30;;;;;;;;;;5027774;28;20135;-77
2023/03/05 13:04:16;;;;;;;24.20;18.90;;;;;;;;;;5038120;28;20033;-77
2023/03/05 13:06:41;;;;;;;22.00;18.40;;;;;;;;;;5039122;28;20048;-77
2023/03/05 13:09:14;;;;;;;26.25;18.83;;;;;;;;;;5024727;28;20040;-77
2023/03/05 13:11:41;;;;;;;28.83;20.83;;;;;;;;;;5026269;28;20025;-75
2023/03/05 13:14:24;;;;;;;26.45;20.10;;;;;;;;;;5029424;28;20036;-76
2023/03/05 13:16:49;;;;;;;24.42;19.40;;;;;;;;;;5024235;28;20492;-77
2023/03/05 13:19:15;;;;;;;27.48;21.67;;;;;;;;;;5024036;28;20155;-75
2023/03/05 13:21:40;;;;;;;25.65;19.90;;;;;;;;;;5024093;28;20029;-78
2023/03/05 13:24:14;;;;;;;25.45;20.27;;;;;;;;;;5025252;28;20023;-76
2023/03/05 13:26:40;;;;;;;22.17;18.52;;;;;;;;;;5024956;28;20112;-77
2023/03/05 13:29:15;;;;;;;23.08;19.83;;;;;;;;;;5038238;28;20029;-78
2023/03/05 13:31:41;;;;;;;26.83;22.10;;;;;;;;;;5039366;28;20072;-78
2023/03/05 13:34:25;;;;;;;26.23;21.67;;;;;;;;;;5036718;28;20079;-78
2023/03/05 13:36:58;;;;;;;28.48;22.27;;;;;;;;;;5035244;28;20434;-78
2023/03/05 13:39:26;;;;;;;21.88;17.27;;;;;;;;;;5034124;28;20025;-78
2023/03/05 13:42:05;;;;;;;24.75;20.48;;;;;;;;;;5036977;28;20506;-78
2023/03/05 13:44:32;;;;;;;29.42;19.75;;;;;;;;;;5035529;28;20074;-80
2023/03/05 13:47:30;;;;;;;35.45;25.90;;;;;;;;;;5037325;28;20078;-78
2023/03/05 13:50:00;;;;;;;32.97;25.65;;;;;;;;;;5031956;28;20132;-77
2023/03/05 13:52:28;;;;;;;43.67;30.88;;;;;;;;;;5027303;28;20068;-77
2023/03/05 13:54:53;;;;;;;44.10;32.70;;;;;;;;;;5032503;28;20048;-79
2023/03/05 13:57:31;;;;;;;25.92;21.92;;;;;;;;;;5032194;28;20029;-77
2023/03/05 13:59:56;;;;;;;30.17;23.55;;;;;;;;;;5031745;28;20053;-77
2023/03/05 14:02:22;;;;;;;28.65;23.27;;;;;;;;;;5031631;28;20057;-78
2023/03/05 14:04:47;;;;;;;34.28;26.98;;;;;;;;;;5033118;28;20639;-79
2023/03/05 14:07:19;;;;;;;32.95;26.08;;;;;;;;;;5035170;28;20356;-78
2023/03/05 14:09:46;;;;;;;48.00;34.05;;;;;;;;;;5036316;28;20794;-78
2023/03/05 14:12:23;;;;;;;31.85;26.35;;;;;;;;;;5035092;28;20049;-79